NCAR-RAP Real-Time Weather Data

Output produced by METARs form (12 August 2020  18:48 UTC)
found at http://weather.rap.ucar.edu/surface/
 
KBWI 121754Z COR 23005KT 10SM TS BKN032CB BKN250 34/23 A2999 RMK AO2 TSB39 SLP155 TS OHD MOV E T03390228 10339 20267 58009
KBWI 121745Z VRB04KT 10SM TS BKN032CB BKN250 34/24 A2999 RMK AO2 TSB39 TS OHD MOV E CB OHD MOV E T03390239
KBWI 121654Z VRB04KT 10SM BKN032TCU BKN250 32/24 A3001 RMK AO2 SLP160 TCU N T03170239
KBWI 121554Z 14003KT 10SM SCT070 BKN150 BKN250 31/23 A3003 RMK AO2 SLP166 T03060233
KBWI 121454Z VRB03KT 10SM SCT250 30/23 A3002 RMK AO2 SLP165 T03000233 53003
KBWI 121354Z 33003KT 10SM SCT150 BKN220 28/23 A3002 RMK AO2 SLP163 T02830228
KBWI 121254Z 33004KT 10SM SCT150 BKN220 28/22 A3001 RMK AO2 SLP162 T02780222
KBWI 121154Z 28004KT 10SM FEW120 SCT160 BKN210 27/22 A3001 RMK AO2 SLP162 T02670222 10267 20256 51015
KBWI 121054Z 27005KT 10SM SCT060 SCT120 BKN160 BKN230 26/22 A3001 RMK AO2 SLP159 T02610222
KBWI 120954Z 26004KT 10SM SCT065 BKN130 BKN170 BKN250 26/23 A2998 RMK AO2 SLP152 T02610233
KBWI 120854Z 00000KT 10SM FEW080 BKN130 BKN250 26/23 A2997 RMK AO2 SLP147 T02610233 53001
KBWI 120754Z 00000KT 10SM SCT085 BKN130 BKN250 27/23 A2997 RMK AO2 SLP146 T02670228
KBWI 120654Z 23003KT 10SM SCT080 SCT120 BKN250 27/23 A2996 RMK AO2 SLP144 T02670228
KBWI 120554Z 20003KT 10SM SCT075 SCT140 BKN250 27/23 A2997 RMK AO2 SLP146 T02670233 10300 20267 53006
KBWI 120454Z 18004KT 10SM FEW140 SCT250 27/23 A2996 RMK AO2 SLP143 T02720233 403390239
KBWI 120354Z 20004KT 10SM FEW250 28/23 A2995 RMK AO2 SLP141 T02780233
KBWI 120254Z 19004KT 10SM SCT140 SCT250 28/24 A2995 RMK AO2 SLP140 T02830244 53010
KBWI 120154Z 00000KT 10SM FEW140 SCT250 28/24 A2994 RMK AO2 SLP138 T02830239
KBWI 120054Z 16005KT 10SM FEW090 SCT140 BKN250 29/23 A2992 RMK AO2 SLP131 T02890233
KBWI 112354Z 16005KT 10SM FEW044 FEW095 SCT140 BKN250 30/23 A2992 RMK AO2 SLP130 T03000233 10339 20300 53004
KBWI 112254Z 17005KT 10SM FEW048 FEW095 SCT250 31/23 A2990 RMK AO2 LTG DSNT NE AND E SLP123 CB DSNT NE MOV STNRY T03110233
KBWI 112154Z 20005KT 10SM FEW050TCU SCT095 SCT250 33/23 A2991 RMK AO2 LTG DSNT NE SLP127 CB DSNT NE MOV E TCU SW T03280228
KBWI 112054Z 17006KT 10SM SCT044 SCT250 33/23 A2991 RMK AO2 SLP125 TCU DSNT N AND DSNT S-SW T03330228 56010
KBWI 111954Z 17007KT 10SM SCT045 SCT250 33/22 A2991 RMK AO2 LTG DSNT NE SLP125 TCU DSNT NE AND DSNT S-SW T03330222
KBWI 111854Z VRB04KT 10SM SCT040TCU SCT060 BKN250 33/22 A2992 RMK AO2 SLP131 TCU N T03280222
KBWI 111754Z VRB06KT 10SM SCT040TCU SCT050 BKN250 32/22 A2994 RMK AO2 SLP136 TCU SW T03220222 10333 20256 58014
KBWI 111654Z 20006KT 10SM FEW033 BKN040 BKN250 32/22 A2996 RMK AO2 SLP143 T03220222
KBWI 111554Z 18006KT 10SM FEW031 BKN040 BKN250 32/23 A2998 RMK AO2 SLP150 T03170228
KBWI 111454Z VRB05KT 10SM SCT045 BKN250 30/23 A2998 RMK AO2 SLP150 T03000228 51005
KBWI 111354Z VRB05KT 10SM FEW012 FEW180 SCT250 29/23 A2997 RMK AO2 SLP148 T02890228
KBWI 111254Z 00000KT 10SM FEW012 FEW040 SCT250 27/23 A2997 RMK AO2 SLP149 T02720233
KBWI 111232Z 20004KT 10SM FEW010 FEW040 SCT250 27/23 A2996 RMK AO2 T02670228
KBWI 111154Z 19003KT 7SM FEW006 FEW040 BKN250 26/23 A2996 RMK AO2 SLP145 T02560233 10256 20239 53005
KBWI 111054Z 16003KT 6SM BR FEW006 FEW040 BKN250 24/23 A2996 RMK AO2 SLP144 T02440228
KBWI 110954Z 12003KT 7SM SCT005 SCT250 24/23 A2995 RMK AO2 SLP140 TCU DSNT E T02440228
KBWI 110928Z 00000KT 7SM BKN006 24/23 A2995 RMK AO2 T02440228
KBWI 110907Z 00000KT 7SM SCT006 SCT250 24/23 A2995 RMK AO2 T02390228
KBWI 110854Z 00000KT 10SM FEW010 SCT250 24/23 A2994 RMK AO2 SLP138 T02440228 57010
KBWI 110754Z 13003KT 10SM FEW250 25/23 A2994 RMK AO2 SLP138 T02500233
KBWI 110654Z 00000KT 10SM CLR 25/23 A2997 RMK AO2 SLP147 T02500228
KBWI 110554Z 00000KT 10SM CLR 26/23 A2997 RMK AO2 SLP148 T02560233 10294 20250 58004
KBWI 110454Z 00000KT 10SM CLR 26/23 A2999 RMK AO2 SLP153 T02560228 403390239
KBWI 110354Z 16003KT 10SM CLR 26/23 A2998 RMK AO2 SLP150 T02610233
KBWI 110254Z 00000KT 10SM FEW250 27/23 A2998 RMK AO2 SLP152 T02720233 53009
KBWI 110154Z 16004KT 10SM CLR 28/23 A2997 RMK AO2 SLP148 T02780233
KBWI 110054Z 16004KT 10SM FEW060 FEW250 28/23 A2996 RMK AO2 SLP143 T02830233
KBWI 102354Z 16006KT 10SM FEW060 FEW140 FEW250 29/23 A2996 RMK AO2 SLP143 TCU DSNT NW T02940228 10339 20294 56007
KBWI 102254Z 17007KT 10SM SCT060CB SCT250 31/22 A2996 RMK AO2 TSE33 SLP143 CB DSNT SW AND NW MOV E T03110217
KBWI 102154Z 14008KT 10SM FEW050 FEW090 FEW250 32/20 A2997 RMK AO2 SLP147 CB DSNT SW MOV E TCU DSNT S AND DSNT W T03220200
KBWI 102054Z 14009KT 10SM FEW050TCU FEW250 33/21 A2998 RMK AO2 SLP150 TCU DSNT E AND DSNT S-SW AND W T03280206 56014
KBWI 101954Z 13006KT 10SM SCT047TCU SCT250 33/22 A2999 RMK AO2 SLP155 TCU OHD-N AND DSNT E AND DSNT S-SW T03330217
KBWI 101854Z VRB03KT 10SM SCT050TCU SCT070 BKN250 34/21 A3000 RMK AO2 SLP158 CB DSNT SE MOV SE AND TCU OHD T03390211